Time;durP1;ratioP1;P1;durP2;ratioP2;P2;SDS_P1;SDS_P2;PMS_P1;PMS_P2;Temp;Humidity;BMP_temperature;BMP_pressure;BME280_temperature;BME280_humidity;BME280_pressure;Samples;Min_cycle;Max_cycle;Signal;HPM_P1;HPM_P2
2024/01/20 00:00:16;;;;;;;18.13;8.38;;;;;;;-0.54;69.77;97666.16;4868497;29;20117;-82
2024/01/20 00:02:44;;;;;;;14.40;8.65;;;;;;;-0.62;69.21;97664.00;4866512;29;20050;-82
2024/01/20 00:05:13;;;;;;;15.15;9.15;;;;;;;-0.64;69.27;97663.25;4867195;29;20053;-82
2024/01/20 00:07:41;;;;;;;15.40;8.30;;;;;;;-0.62;69.66;97658.06;4869033;29;20086;-82
2024/01/20 00:10:11;;;;;;;18.90;10.05;;;;;;;-0.58;70.14;97671.53;4868974;29;20068;-82
2024/01/20 00:12:42;;;;;;;16.27;9.82;;;;;;;-0.58;69.85;97663.84;4867783;29;20061;-84
2024/01/20 00:15:10;;;;;;;15.98;9.43;;;;;;;-0.56;69.87;97669.72;4868246;29;20138;-82
2024/01/20 00:17:40;;;;;;;15.80;9.10;;;;;;;-0.57;69.92;97658.59;4867594;29;20054;-82
2024/01/20 00:20:10;;;;;;;18.58;10.25;;;;;;;-0.57;70.88;97658.59;4867970;29;20052;-82
2024/01/20 00:22:39;;;;;;;14.85;8.90;;;;;;;-0.53;71.88;97660.09;4869244;29;20056;-83
2024/01/20 00:25:08;;;;;;;23.05;10.52;;;;;;;-0.50;72.44;97667.63;4868316;29;20470;-82
2024/01/20 00:27:38;;;;;;;15.88;10.68;;;;;;;-0.45;73.13;97665.63;4868021;29;20437;-82
2024/01/20 00:30:06;;;;;;;16.52;9.73;;;;;;;-0.46;72.58;97669.09;4869179;29;20541;-82
2024/01/20 00:32:34;;;;;;;19.30;11.07;;;;;;;-0.50;72.37;97680.44;4868510;29;20058;-82
2024/01/20 00:35:04;;;;;;;17.75;9.50;;;;;;;-0.50;72.23;97697.56;4871226;29;20421;-82
2024/01/20 00:37:35;;;;;;;15.88;10.35;;;;;;;-0.53;71.78;97703.66;4871258;29;20057;-82
2024/01/20 00:40:06;;;;;;;17.25;10.32;;;;;;;-0.56;73.34;97711.53;4870612;29;20049;-82
2024/01/20 00:42:35;;;;;;;16.52;9.80;;;;;;;-0.55;71.70;97710.59;4871518;29;20061;-82
2024/01/20 00:45:03;;;;;;;16.60;9.98;;;;;;;-0.64;70.36;97696.56;4872213;29;20061;-83
2024/01/20 00:47:31;;;;;;;15.30;9.30;;;;;;;-0.66;71.68;97695.00;4872533;29;20106;-82
2024/01/20 00:49:58;;;;;;;15.77;11.05;;;;;;;-0.57;73.22;97702.19;4871115;29;20069;-82
2024/01/20 00:52:26;;;;;;;16.27;9.40;;;;;;;-0.54;71.60;97688.38;4870751;29;20060;-81
2024/01/20 00:54:54;;;;;;;16.63;9.55;;;;;;;-0.60;70.30;97689.53;4881852;29;20121;-81
2024/01/20 00:57:23;;;;;;;16.40;9.55;;;;;;;-0.67;69.99;97675.44;4882118;29;20057;-82
2024/01/20 00:59:50;;;;;;;17.73;9.95;;;;;;;-0.70;70.17;97681.56;4877388;29;20049;-82
2024/01/20 01:02:18;;;;;;;11.52;8.57;;;;;;;-0.73;69.34;97678.31;4869861;29;20059;-82
2024/01/20 01:04:46;;;;;;;13.93;9.55;;;;;;;-0.75;69.54;97677.59;4868345;29;20049;-82
2024/01/20 01:07:14;;;;;;;13.70;8.60;;;;;;;-0.77;69.66;97679.41;4868663;29;20665;-82
2024/01/20 01:09:41;;;;;;;14.13;8.77;;;;;;;-0.78;70.51;97667.53;4867690;29;20161;-82
2024/01/20 01:12:10;;;;;;;14.23;8.93;;;;;;;-0.82;70.22;97686.53;4867151;29;20144;-82
2024/01/20 01:14:39;;;;;;;17.52;8.40;;;;;;;-0.84;70.34;97700.22;4869043;29;20514;-82
2024/01/20 01:17:06;;;;;;;14.70;8.88;;;;;;;-0.82;70.28;97712.16;4867620;29;20064;-83
2024/01/20 01:19:34;;;;;;;14.05;9.00;;;;;;;-0.85;69.80;97702.91;4869098;29;20045;-83
2024/01/20 01:22:02;;;;;;;16.83;10.40;;;;;;;-0.89;70.56;97709.91;4868499;29;20113;-83
2024/01/20 01:24:29;;;;;;;12.98;8.32;;;;;;;-0.88;70.76;97711.53;4866682;29;20057;-82
2024/01/20 01:26:57;;;;;;;16.40;9.38;;;;;;;-0.92;69.84;97712.66;4868212;29;20084;-82
2024/01/20 01:29:25;;;;;;;14.38;8.43;;;;;;;-0.96;69.92;97710.31;4867697;29;20054;-83
2024/01/20 01:31:55;;;;;;;15.30;9.60;;;;;;;-0.95;69.87;97712.78;4868217;29;20053;-84
2024/01/20 01:34:22;;;;;;;14.98;9.45;;;;;;;-0.93;69.32;97710.97;4873546;29;20050;-82
2024/01/20 01:36:50;;;;;;;12.65;9.07;;;;;;;-0.93;70.04;97716.09;4882755;29;20054;-83
2024/01/20 01:39:18;;;;;;;15.15;9.30;;;;;;;-0.94;69.99;97717.03;4885833;29;20037;-82
2024/01/20 01:41:46;;;;;;;16.95;8.88;;;;;;;-1.01;69.06;97720.00;4885437;29;20070;-81
2024/01/20 01:44:14;;;;;;;16.52;9.93;;;;;;;-1.08;68.91;97727.16;4884999;29;20076;-83
2024/01/20 01:46:42;;;;;;;13.70;9.10;;;;;;;-1.15;68.56;97736.09;4875244;29;20076;-82
2024/01/20 01:49:11;;;;;;;15.57;9.75;;;;;;;-1.21;68.47;97733.84;4877133;29;20057;-82
2024/01/20 01:51:39;;;;;;;15.25;9.05;;;;;;;-1.26;68.53;97734.91;4883595;29;20061;-81
2024/01/20 01:54:09;;;;;;;14.85;8.88;;;;;;;-1.31;68.87;97730.97;4884411;29;20060;-82
2024/01/20 01:56:37;;;;;;;13.50;9.48;;;;;;;-1.34;68.85;97731.91;4885949;29;20095;-81
2024/01/20 01:59:04;;;;;;;13.90;9.18;;;;;;;-1.36;69.25;97738.03;4885313;29;20076;-81
2024/01/20 02:01:32;;;;;;;14.93;9.43;;;;;;;-1.38;69.00;97737.28;4885493;29;20044;-81
2024/01/20 02:04:00;;;;;;;14.68;9.57;;;;;;;-1.38;69.76;97738.09;4874996;29;20061;-82
2024/01/20 02:06:29;;;;;;;19.05;10.85;;;;;;;-1.36;70.17;97738.84;4867119;29;20054;-82
2024/01/20 02:08:57;;;;;;;14.75;9.07;;;;;;;-1.36;69.76;97738.84;4865706;29;20080;-82
2024/01/20 02:11:25;;;;;;;13.70;9.75;;;;;;;-1.33;70.86;97748.94;4868138;29;20065;-82
2024/01/20 02:13:53;;;;;;;16.02;9.48;;;;;;;-1.29;71.22;97750.44;4865902;29;20054;-82
2024/01/20 02:16:21;;;;;;;13.27;9.27;;;;;;;-1.27;71.39;97747.78;4867602;29;20117;-83
2024/01/20 02:18:48;;;;;;;20.13;10.10;;;;;;;-1.21;71.65;97751.78;4868216;29;20049;-85
2024/01/20 02:21:16;;;;;;;15.82;8.70;;;;;;;-1.26;70.30;97752.84;4868566;29;20050;-84
2024/01/20 02:23:47;;;;;;;13.57;8.63;;;;;;;-1.30;69.46;97751.34;4866894;29;20053;-82
2024/01/20 02:26:15;;;;;;;12.88;9.40;;;;;;;-1.33;69.45;97746.38;4866976;29;20088;-82
2024/01/20 02:28:42;;;;;;;14.20;8.52;;;;;;;-1.37;69.43;97747.44;4866828;29;20120;-82
2024/01/20 02:31:10;;;;;;;15.20;9.32;;;;;;;-1.38;69.76;97740.66;4867016;29;20051;-82
2024/01/20 02:33:37;;;;;;;14.02;9.18;;;;;;;-1.34;70.91;97742.16;4872118;29;20137;-82
2024/01/20 02:36:06;;;;;;;13.15;8.13;;;;;;;-1.35;69.92;97735.41;4871440;29;20049;-82
2024/01/20 02:38:33;;;;;;;14.05;8.77;;;;;;;-1.38;69.20;97730.41;4869224;29;20061;-83
2024/01/20 02:41:02;;;;;;;14.35;9.70;;;;;;;-1.40;69.31;97726.28;4865720;29;20064;-84
2024/01/20 02:43:30;;;;;;;16.73;8.48;;;;;;;-1.42;69.80;97728.09;4866300;29;20486;-83
2024/01/20 02:45:58;;;;;;;17.95;8.65;;;;;;;-1.40;70.63;97729.69;4865238;29;20100;-81
2024/01/20 02:48:25;;;;;;;14.95;9.43;;;;;;;-1.44;69.52;97733.31;4864743;29;20053;-83
2024/01/20 02:50:53;;;;;;;15.43;9.27;;;;;;;-1.47;70.13;97736.84;4865497;29;20053;-82
2024/01/20 02:53:21;;;;;;;13.82;8.90;;;;;;;-1.50;69.88;97742.13;4867469;29;20069;-83
2024/01/20 02:55:49;;;;;;;13.15;8.75;;;;;;;-1.54;69.61;97737.25;4863884;29;20140;-82
2024/01/20 02:58:18;;;;;;;16.10;8.85;;;;;;;-1.59;69.33;97739.22;4866465;29;20145;-82
2024/01/20 03:00:46;;;;;;;14.02;9.23;;;;;;;-1.62;70.06;97734.25;4869654;29;20092;-83
2024/01/20 03:03:13;;;;;;;17.08;10.25;;;;;;;-1.66;70.21;97729.31;4868889;29;20446;-83
2024/01/20 03:05:41;;;;;;;15.00;9.65;;;;;;;-1.71;69.62;97727.88;4863298;29;20110;-82
2024/01/20 03:08:09;;;;;;;13.10;8.45;;;;;;;-1.71;70.26;97730.44;4863237;29;20467;-82
2024/01/20 03:10:37;;;;;;;13.57;9.23;;;;;;;-1.75;70.01;97727.22;4863772;29;20148;-82
2024/01/20 03:13:04;;;;;;;17.05;10.65;;;;;;;-1.75;71.16;97732.31;4862634;29;20095;-84
2024/01/20 03:15:33;;;;;;;14.15;9.43;;;;;;;-1.71;71.63;97723.56;4861936;29;20148;-82
2024/01/20 03:18:02;;;;;;;14.43;8.45;;;;;;;-1.75;70.45;97727.22;4860191;29;20053;-83
2024/01/20 03:20:29;;;;;;;19.33;9.13;;;;;;;-1.85;70.02;97731.13;4860581;29;20102;-82
2024/01/20 03:22:57;;;;;;;16.02;9.10;;;;;;;-1.92;70.06;97727.22;4860977;29;20063;-85
2024/01/20 03:25:25;;;;;;;14.15;9.65;;;;;;;-1.97;70.39;97726.59;4861807;29;20049;-83
2024/01/20 03:27:53;;;;;;;13.52;9.13;;;;;;;-2.01;70.07;97731.06;4862060;29;20474;-83
2024/01/20 03:30:21;;;;;;;18.30;10.63;;;;;;;-2.02;71.46;97723.47;4863669;29;20117;-82
2024/01/20 03:32:51;;;;;;;16.50;10.48;;;;;;;-2.02;72.08;97729.41;4863293;29;20064;-82
2024/01/20 03:35:18;;;;;;;15.93;10.15;;;;;;;-2.04;71.58;97735.50;4863712;29;20529;-83
2024/01/20 03:37:46;;;;;;;14.25;9.52;;;;;;;-2.05;71.15;97738.97;4864357;29;20132;-84
2024/01/20 03:40:14;;;;;;;12.98;9.70;;;;;;;-2.11;70.78;97735.78;4863508;29;20053;-84
2024/01/20 03:42:41;;;;;;;17.95;10.02;;;;;;;-2.16;70.75;97732.66;4863472;29;20171;-83
2024/01/20 03:45:10;;;;;;;16.55;10.35;;;;;;;-2.17;71.69;97748.88;4863694;29;20060;-83
2024/01/20 03:47:37;;;;;;;18.20;9.10;;;;;;;-2.18;71.40;97754.91;4863594;29;20080;-84
2024/01/20 03:50:09;;;;;;;14.75;9.63;;;;;;;-2.20;70.95;97756.69;4863985;29;20057;-83
2024/01/20 03:52:37;;;;;;;19.52;10.50;;;;;;;-2.20;71.69;97756.69;4863024;29;20049;-83
2024/01/20 03:55:06;;;;;;;20.92;10.98;;;;;;;-2.20;72.51;97769.47;4863619;29;20053;-82
2024/01/20 03:57:34;;;;;;;17.05;9.77;;;;;;;-2.20;72.85;97766.09;4863766;29;20144;-83
2024/01/20 04:00:01;;;;;;;17.63;10.63;;;;;;;-2.19;73.23;97777.97;4862999;29;20140;-83
2024/01/20 04:02:29;;;;;;;18.10;11.38;;;;;;;-2.18;73.77;97775.34;4862943;29;20057;-83
2024/01/20 04:04:57;;;;;;;18.52;11.13;;;;;;;-2.10;74.62;97777.50;4866297;29;20140;-83
2024/01/20 04:07:26;;;;;;;21.75;13.20;;;;;;;-2.03;74.26;97778.03;4867271;29;20050;-84
2024/01/20 04:09:54;;;;;;;18.90;11.43;;;;;;;-2.00;74.37;97776.19;4867340;29;20050;-83
2024/01/20 04:12:21;;;;;;;16.30;10.45;;;;;;;-2.08;72.47;97776.56;4866892;29;20133;-83
2024/01/20 04:14:49;;;;;;;19.95;10.23;;;;;;;-2.28;71.26;97786.91;4866626;29;20050;-83
2024/01/20 04:17:16;;;;;;;18.17;10.80;;;;;;;-2.38;71.69;97783.13;4866447;29;20064;-86
2024/01/20 04:19:44;;;;;;;21.98;11.43;;;;;;;-2.46;71.51;97786.03;4865966;29;20054;-82
2024/01/20 04:22:11;;;;;;;16.17;10.23;;;;;;;-2.57;70.70;97785.72;4866031;29;20132;-82
2024/01/20 04:24:40;;;;;;;20.80;11.32;;;;;;;-2.66;70.64;97791.25;4866487;29;20140;-83
2024/01/20 04:27:08;;;;;;;18.85;11.00;;;;;;;-2.69;71.20;97789.66;4866137;29;20059;-83
2024/01/20 04:29:36;;;;;;;20.60;10.98;;;;;;;-2.70;70.87;97788.81;4875179;29;20088;-85
2024/01/20 04:32:04;;;;;;;17.05;10.38;;;;;;;-2.73;71.08;97795.81;4886574;29;20041;-83
2024/01/20 04:34:31;;;;;;;16.85;9.50;;;;;;;-2.76;70.83;97791.66;4886819;29;20079;-87
2024/01/20 04:36:59;;;;;;;17.35;10.50;;;;;;;-2.81;70.10;97795.31;4887020;29;20046;-84
2024/01/20 04:39:26;;;;;;;14.40;10.15;;;;;;;-2.93;69.34;97792.44;4872923;29;20518;-83
2024/01/20 04:41:56;;;;;;;18.60;10.13;;;;;;;-3.03;69.26;97791.19;4865748;29;20053;-85
2024/01/20 04:44:23;;;;;;;17.23;9.75;;;;;;;-3.11;69.31;97793.22;4866078;29;20053;-84
2024/01/20 04:46:51;;;;;;;14.95;9.70;;;;;;;-3.20;69.68;97793.66;4865524;29;20077;-83
2024/01/20 04:49:18;;;;;;;21.63;10.45;;;;;;;-3.29;70.03;97799.16;4871843;29;20194;-82
2024/01/20 04:51:47;;;;;;;18.27;9.85;;;;;;;-3.37;69.79;97797.78;4878141;29;20117;-81
2024/01/20 04:54:14;;;;;;;17.00;10.30;;;;;;;-3.42;69.83;97799.66;4877473;29;20069;-84
2024/01/20 04:56:42;;;;;;;17.25;9.45;;;;;;;-3.43;70.92;97803.13;4868657;29;20053;-84
2024/01/20 04:59:11;;;;;;;17.77;10.15;;;;;;;-3.41;70.85;97803.91;4867035;29;20132;-83
2024/01/20 05:01:38;;;;;;;17.20;10.30;;;;;;;-3.44;70.27;97805.72;4866967;29;20141;-84
2024/01/20 05:04:07;;;;;;;14.88;9.30;;;;;;;-3.52;69.95;97808.59;4868395;29;20429;-83
2024/01/20 05:06:35;;;;;;;15.13;9.32;;;;;;;-3.56;69.93;97817.28;4867705;29;20082;-84
2024/01/20 05:09:04;;;;;;;15.27;9.63;;;;;;;-3.61;70.09;97829.41;4868477;29;20422;-86
2024/01/20 05:11:32;;;;;;;15.15;9.23;;;;;;;-3.59;71.39;97833.53;4867751;29;20056;-86
2024/01/20 05:14:00;;;;;;;17.05;10.18;;;;;;;-3.48;72.27;97829.72;4867808;29;20136;-84
2024/01/20 05:16:28;;;;;;;16.60;10.63;;;;;;;-3.42;73.04;97840.50;4867992;29;20084;-84
2024/01/20 05:18:56;;;;;;;18.25;9.40;;;;;;;-3.40;71.93;97843.81;4868413;29;20078;-84
2024/01/20 05:21:24;;;;;;;15.70;9.00;;;;;;;-3.47;70.30;97852.63;4867999;29;20110;-85
2024/01/20 05:23:52;;;;;;;17.02;10.20;;;;;;;-3.55;69.95;97847.00;4868291;29;20053;-83
2024/01/20 05:26:19;;;;;;;15.20;9.32;;;;;;;-3.63;69.96;97841.38;4869226;29;20053;-83
2024/01/20 05:28:47;;;;;;;16.17;9.05;;;;;;;-3.69;69.73;97841.66;4868890;29;20092;-85
2024/01/20 05:31:15;;;;;;;14.07;8.20;;;;;;;-3.73;69.25;97831.56;4869240;29;20152;-85
2024/01/20 05:33:44;;;;;;;16.70;9.40;;;;;;;-3.79;68.83;97836.91;4869945;29;20058;-86
2024/01/20 05:36:12;;;;;;;15.70;9.38;;;;;;;-3.84;69.22;97838.00;4869412;29;20506;-84
2024/01/20 05:38:40;;;;;;;18.17;11.02;;;;;;;-3.87;69.34;97828.75;4870493;29;20045;-84
2024/01/20 05:41:09;;;;;;;18.10;10.48;;;;;;;-3.88;69.33;97822.00;4871363;29;20050;-84
2024/01/20 05:43:38;;;;;;;17.55;10.38;;;;;;;-3.84;70.29;97822.69;4873968;29;20053;-85
2024/01/20 05:46:06;;;;;;;18.48;9.88;;;;;;;-3.82;70.50;97821.75;4874463;29;20073;-83
2024/01/20 05:48:35;;;;;;;17.75;9.93;;;;;;;-3.81;70.03;97833.59;4874767;29;20060;-85
2024/01/20 05:51:05;;;;;;;17.38;10.65;;;;;;;-3.81;70.65;97833.59;4872542;29;20356;-84
2024/01/20 05:53:33;;;;;;;16.00;10.23;;;;;;;-3.76;71.24;97833.41;4870807;29;20050;-85
2024/01/20 05:56:01;;;;;;;17.92;10.75;;;;;;;-3.69;72.36;97831.44;4868054;29;20053;-84
2024/01/20 05:58:28;;;;;;;17.05;10.25;;;;;;;-3.67;71.71;97833.03;4869279;29;20045;-84
2024/01/20 06:00:56;;;;;;;18.25;10.25;;;;;;;-3.65;71.72;97838.91;4871765;29;20045;-83
2024/01/20 06:03:25;;;;;;;18.20;10.02;;;;;;;-3.58;71.27;97834.38;4879016;29;20055;-83
2024/01/20 06:05:53;;;;;;;17.67;11.25;;;;;;;-3.61;70.52;97837.03;4889813;29;20088;-83
2024/01/20 06:08:23;;;;;;;19.65;11.07;;;;;;;-3.69;69.73;97839.09;4882225;29;20049;-84
2024/01/20 06:10:51;;;;;;;16.13;9.57;;;;;;;-3.78;69.87;97838.56;4886096;29;20088;-83
2024/01/20 06:13:19;;;;;;;17.17;10.00;;;;;;;-3.82;70.18;97842.13;4888816;29;20049;-84
2024/01/20 06:15:47;;;;;;;17.70;11.43;;;;;;;-3.82;69.90;97846.41;4872620;29;20078;-85
2024/01/20 06:18:14;;;;;;;17.10;10.45;;;;;;;-3.86;69.28;97857.63;4870494;29;20425;-83
2024/01/20 06:20:42;;;;;;;17.58;10.82;;;;;;;-3.86;71.03;97863.53;4875663;29;20139;-85
2024/01/20 06:23:10;;;;;;;21.05;10.93;;;;;;;-3.77;71.82;97875.91;4870029;29;20403;-84
2024/01/20 06:25:39;;;;;;;15.93;10.45;;;;;;;-3.69;71.95;97874.81;4872438;29;20104;-84
2024/01/20 06:28:06;;;;;;;19.10;11.63;;;;;;;-3.63;72.27;97879.63;4892610;29;20053;-87
2024/01/20 06:30:34;;;;;;;19.35;10.48;;;;;;;-3.62;71.10;97891.50;4879344;29;20056;-87
2024/01/20 06:33:03;;;;;;;18.48;10.85;;;;;;;-3.65;70.39;97886.50;4875653;29;20060;-87
2024/01/20 06:35:31;;;;;;;18.52;10.80;;;;;;;-3.72;70.58;97898.69;4874699;29;20054;-83
2024/01/20 06:37:59;;;;;;;17.70;11.23;;;;;;;-3.76;70.71;97900.53;4873049;29;20521;-85
2024/01/20 06:40:27;;;;;;;19.85;12.05;;;;;;;-3.74;72.16;97901.31;4873244;29;20126;-84
2024/01/20 06:42:56;;;;;;;19.63;11.80;;;;;;;-3.67;72.68;97907.00;4870922;29;20054;-85
2024/01/20 06:45:23;;;;;;;21.92;12.80;;;;;;;-3.66;71.53;97912.91;4877994;29;20061;-85
2024/01/20 06:47:51;;;;;;;21.42;11.55;;;;;;;-3.70;70.35;97911.38;4875294;29;20085;-83
2024/01/20 06:50:19;;;;;;;21.60;12.40;;;;;;;-3.79;70.76;97910.03;4885872;29;20053;-85
2024/01/20 06:52:47;;;;;;;21.23;12.70;;;;;;;-3.77;72.74;97916.72;4882412;29;20069;-86
2024/01/20 06:55:15;;;;;;;21.42;11.98;;;;;;;-3.77;72.50;97911.63;4872501;29;20125;-85
2024/01/20 06:57:42;;;;;;;24.38;12.57;;;;;;;-3.86;71.06;97911.97;4878218;29;20053;-88
2024/01/20 07:00:13;;;;;;;18.65;11.55;;;;;;;-3.91;71.87;97913.88;4888293;29;20109;-85
2024/01/20 07:02:41;;;;;;;22.58;12.70;;;;;;;-3.91;71.59;97908.78;4870285;29;20049;-84
2024/01/20 07:05:10;;;;;;;22.88;12.50;;;;;;;-3.95;70.59;97912.34;4878375;29;20112;-84
2024/01/20 07:07:38;;;;;;;23.65;13.02;;;;;;;-4.03;69.73;97919.44;4890345;29;20612;-85
2024/01/20 07:10:08;;;;;;;26.17;15.20;;;;;;;-4.09;70.54;97912.84;4896486;29;20128;-86
2024/01/20 07:12:36;;;;;;;22.95;13.20;;;;;;;-4.10;71.12;97918.03;4881489;29;20086;-85
2024/01/20 07:15:05;;;;;;;24.70;12.43;;;;;;;-4.11;70.99;97922.31;4879019;29;20034;-87
2024/01/20 07:17:35;;;;;;;24.98;12.80;;;;;;;-4.14;70.14;97922.41;4886877;29;20045;-87
2024/01/20 07:20:03;;;;;;;26.27;13.40;;;;;;;-4.15;71.25;97924.13;4896721;29;20053;-88
2024/01/20 07:22:31;;;;;;;26.10;13.25;;;;;;;-4.11;71.57;97921.44;4884846;29;20045;-84
2024/01/20 07:24:59;;;;;;;58.05;28.13;;;;;;;-4.09;72.36;97934.97;4878811;29;20049;-86
2024/01/20 07:27:27;;;;;;;32.15;16.90;;;;;;;-4.03;72.61;97934.75;4888513;29;20056;-85
2024/01/20 07:29:54;;;;;;;32.90;17.60;;;;;;;-3.98;72.61;97935.38;4889344;29;20049;-87
2024/01/20 07:32:22;;;;;;;27.58;14.73;;;;;;;-3.95;72.49;97935.28;4882967;29;20140;-85
2024/01/20 07:34:51;;;;;;;26.48;14.02;;;;;;;-3.94;72.20;97942.03;4876306;29;20060;-85
2024/01/20 07:37:19;;;;;;;26.80;15.02;;;;;;;-4.01;71.14;97945.72;4876467;29;20394;-85
2024/01/20 07:39:47;;;;;;;26.52;15.55;;;;;;;-4.06;71.09;97952.72;4876105;29;20057;-83
2024/01/20 07:42:15;;;;;;;28.50;15.30;;;;;;;-4.11;70.83;97952.03;4886256;29;20078;-84
2024/01/20 07:44:43;;;;;;;32.55;16.67;;;;;;;-4.17;70.07;97953.09;4893537;29;20053;-84
2024/01/20 07:47:10;;;;;;;37.60;17.45;;;;;;;-4.25;69.71;97961.03;4895290;29;20049;-85
2024/01/20 07:49:38;;;;;;;37.25;18.85;;;;;;;-4.36;70.04;97963.13;4898052;29;20057;-85
2024/01/20 07:52:07;;;;;;;38.63;19.55;;;;;;;-4.49;70.28;97969.56;4896872;29;20049;-85
2024/01/20 07:54:35;;;;;;;40.35;19.77;;;;;;;-4.56;70.73;97959.59;4887358;29;20057;-84
2024/01/20 07:57:03;;;;;;;40.05;19.65;;;;;;;-4.59;71.04;97966.53;4898478;29;20083;-83
2024/01/20 07:59:31;;;;;;;42.08;19.70;;;;;;;-4.62;70.85;97962.34;4894953;29;20048;-85
2024/01/20 08:01:58;;;;;;;38.42;20.35;;;;;;;-4.65;71.03;97975.19;4894942;29;20387;-84
2024/01/20 08:04:26;;;;;;;40.03;18.83;;;;;;;-4.70;71.06;97974.53;4889577;29;20076;-88
2024/01/20 08:06:54;;;;;;;39.75;19.30;;;;;;;-4.70;71.54;97974.53;4885817;29;20046;-85
2024/01/20 08:09:23;;;;;;;36.60;18.98;;;;;;;-4.69;71.60;97967.72;4879715;29;20049;-85
2024/01/20 08:11:51;;;;;;;38.15;18.77;;;;;;;-4.67;71.38;97971.88;4880274;29;20046;-85
2024/01/20 08:14:19;;;;;;;41.28;20.38;;;;;;;-4.66;71.72;97965.88;4881163;29;20057;-85
2024/01/20 08:16:46;;;;;;;39.17;19.48;;;;;;;-4.60;71.99;97975.84;4885524;29;20053;-84
2024/01/20 08:19:14;;;;;;;36.15;18.00;;;;;;;-4.55;71.82;97978.25;4887433;29;20057;-84
2024/01/20 08:21:43;;;;;;;36.17;18.52;;;;;;;-4.48;72.10;97976.31;4890911;29;20082;-85
2024/01/20 08:24:11;;;;;;;36.15;18.35;;;;;;;-4.36;73.04;97979.25;4885142;29;20090;-84
2024/01/20 08:26:41;;;;;;;35.97;18.50;;;;;;;-4.17;74.04;97979.41;4881891;29;20053;-84
2024/01/20 08:29:09;;;;;;;35.78;17.48;;;;;;;-3.99;74.08;97983.00;4880543;29;20080;-84
2024/01/20 08:31:37;;;;;;;37.20;19.85;;;;;;;-3.83;74.33;97985.78;4885142;29;20065;-84
2024/01/20 08:34:04;;;;;;;52.47;24.80;;;;;;;-3.72;74.03;97987.94;4891446;29;20191;-85
2024/01/20 08:36:32;;;;;;;39.03;20.67;;;;;;;-3.62;74.16;97996.06;4884317;29;20135;-84
2024/01/20 08:39:00;;;;;;;34.75;18.25;;;;;;;-3.55;73.05;97992.38;4895815;29;20059;-86
2024/01/20 08:41:28;;;;;;;33.88;16.83;;;;;;;-3.56;72.28;97995.84;4894165;29;20049;-84
2024/01/20 08:43:57;;;;;;;31.52;17.15;;;;;;;-3.58;72.21;97992.50;4890990;29;20077;-85
2024/01/20 08:46:26;;;;;;;33.10;16.85;;;;;;;-3.53;72.23;97993.97;4896212;29;20056;-88
2024/01/20 08:48:53;;;;;;;33.72;17.30;;;;;;;-3.51;72.44;98001.56;4900248;29;20363;-87
2024/01/20 08:51:21;;;;;;;28.00;15.15;;;;;;;-3.44;72.21;97994.50;4898691;29;20069;-88
2024/01/20 08:53:49;;;;;;;32.75;17.33;;;;;;;-3.42;71.43;98001.22;4896897;29;20112;-85
2024/01/20 08:56:17;;;;;;;30.75;16.88;;;;;;;-3.42;71.17;97997.84;4889340;29;20078;-85
2024/01/20 08:58:45;;;;;;;34.53;17.50;;;;;;;-3.44;71.07;98000.44;4873879;29;20049;-85
2024/01/20 09:01:14;;;;;;;34.25;17.60;;;;;;;-3.48;71.04;97993.78;4874131;29;20057;-82
2024/01/20 09:03:42;;;;;;;33.83;17.95;;;;;;;-3.36;72.48;98000.97;4873110;29;20140;-84
2024/01/20 09:06:12;;;;;;;34.70;18.38;;;;;;;-3.18;73.77;98001.13;4872622;29;20113;-85
2024/01/20 09:08:40;;;;;;;32.00;17.58;;;;;;;-3.06;73.55;97998.09;4873147;29;20102;-84
2024/01/20 09:11:08;;;;;;;31.77;18.20;;;;;;;-2.99;72.66;98007.16;4879006;29;20061;-85
2024/01/20 09:13:36;;;;;;;29.85;16.35;;;;;;;-2.94;72.51;98009.50;4888207;29;20060;-85
2024/01/20 09:16:04;;;;;;;31.63;16.92;;;;;;;-2.80;73.76;98008.94;4880968;29;20473;-85
2024/01/20 09:18:37;;;;;;;30.02;16.17;;;;;;;-2.61;75.03;98014.09;4869564;29;20398;-88
2024/01/20 09:21:11;;;;;;;34.83;17.73;;;;;;;-2.39;76.39;98019.13;4873897;29;20471;-84
2024/01/20 09:23:41;;;;;;;29.75;16.98;;;;;;;-2.23;74.17;98021.84;4870582;29;20053;-84
2024/01/20 09:26:10;;;;;;;27.63;16.77;;;;;;;-2.16;73.12;98029.19;4866243;29;20110;-84
2024/01/20 09:28:40;;;;;;;29.13;16.48;;;;;;;-2.10;72.28;98036.59;4867483;29;20086;-85
2024/01/20 09:31:09;;;;;;;28.23;16.63;;;;;;;-2.09;71.07;98040.78;4867911;29;20140;-85
2024/01/20 09:33:44;;;;;;;26.52;14.43;;;;;;;-2.04;70.83;98047.44;4867280;29;20086;-84
2024/01/20 09:36:13;;;;;;;19.20;12.32;;;;;;;-1.95;70.92;98047.84;4868378;29;20057;-83
2024/01/20 09:38:45;;;;;;;19.55;11.68;;;;;;;-1.77;71.01;98043.66;4871366;29;20058;-85
2024/01/20 09:41:18;;;;;;;18.50;11.57;;;;;;;-1.61;70.49;98045.50;4884125;29;20076;-84
2024/01/20 09:43:50;;;;;;;36.45;18.05;;;;;;;-1.45;70.47;98049.00;4889234;29;20045;-85
2024/01/20 09:46:24;;;;;;;44.60;22.17;;;;;;;-1.21;71.50;98048.75;4881117;29;20117;-83
2024/01/20 09:49:07;;;;;;;39.40;22.17;;;;;;;-1.03;70.68;98047.88;4899340;29;20053;-86
2024/01/20 09:54:54;;;;;;;36.00;19.20;;;;;;;-0.78;69.94;98046.69;4905133;29;20036;-86
2024/01/20 09:57:34;;;;;;;30.85;17.63;;;;;;;-0.62;71.33;98056.09;4900556;29;20053;-84
2024/01/20 10:00:16;;;;;;;31.00;17.83;;;;;;;-0.42;71.03;98052.56;4874791;29;20113;-85
2024/01/20 10:02:55;;;;;;;28.63;16.80;;;;;;;-0.23;69.73;98054.16;4899274;29;20060;-88
2024/01/20 10:06:04;;;;;;;28.88;14.95;;;;;;;-0.10;67.36;98050.06;4899851;29;20057;-86
2024/01/20 10:09:44;;;;;;;22.25;12.75;;;;;;;0.12;66.74;98054.09;4902254;29;20088;-88
2024/01/20 10:16:42;;;;;;;20.20;11.45;;;;;;;0.78;65.65;98053.09;4901734;29;20077;-86
2024/01/20 10:47:21;;;;;;;18.73;10.38;;;;;;;4.30;55.39;98049.22;4901775;29;20110;-80
2024/01/20 10:49:57;;;;;;;17.67;12.20;;;;;;;4.60;55.93;98055.78;4900283;29;20081;-81
2024/01/20 10:58:46;;;;;;;16.40;10.63;;;;;;;5.21;51.53;98046.19;4897783;29;20085;-79
2024/01/20 12:15:26;;;;;;;11.75;8.52;;;;;;;9.03;41.91;97983.16;6254518;22;20026;-74
2024/01/20 12:17:53;;;;;;;10.30;7.35;;;;;;;8.92;41.64;97972.91;6280725;22;20480;-81
2024/01/20 14:21:27;;;;;;;13.80;7.87;;;;;;;5.18;46.60;97922.22;6267950;22;20019;-81
2024/01/20 15:56:56;;;;;;;16.15;8.45;;;;;;;2.55;50.42;97947.41;6271430;22;20006;-80
2024/01/20 16:53:25;;;;;;;15.45;8.90;;;;;;;1.39;52.86;97956.22;6287188;22;20078;-82
2024/01/20 16:55:53;;;;;;;11.45;7.35;;;;;;;1.36;52.92;97967.53;6297426;22;20023;-82
2024/01/20 16:58:21;;;;;;;12.15;7.35;;;;;;;1.35;53.67;97959.91;6295259;22;20027;-81
2024/01/20 17:00:50;;;;;;;13.23;8.90;;;;;;;1.35;53.05;97965.03;6294935;22;20015;-81
2024/01/20 17:03:19;;;;;;;13.18;8.25;;;;;;;1.33;53.31;97966.88;6294328;22;20015;-82
2024/01/20 17:05:49;;;;;;;11.98;7.88;;;;;;;1.30;54.32;97964.50;6294076;22;20461;-81
2024/01/20 17:08:17;;;;;;;12.25;7.43;;;;;;;1.28;55.10;97964.56;6289135;22;20019;-82
2024/01/20 17:10:47;;;;;;;11.90;7.80;;;;;;;1.24;55.40;97974.19;6291495;22;20026;-81
2024/01/20 17:13:16;;;;;;;16.65;8.07;;;;;;;1.21;54.90;97969.25;6282802;22;20019;-81
2024/01/20 17:15:45;;;;;;;10.80;7.28;;;;;;;1.18;54.50;97966.88;6281573;22;20023;-81
2024/01/20 17:18:13;;;;;;;12.10;8.02;;;;;;;1.15;54.93;97969.59;6280974;22;20023;-81
2024/01/20 17:20:58;;;;;;;15.60;8.38;;;;;;;1.13;56.22;97970.63;6289343;22;20023;-81
2024/01/20 17:23:27;;;;;;;13.25;8.20;;;;;;;1.11;55.88;97977.59;6297617;22;20016;-81
2024/01/20 17:25:56;;;;;;;16.15;8.38;;;;;;;1.05;56.23;97983.91;6299873;22;20004;-81
2024/01/20 17:28:24;;;;;;;14.15;8.98;;;;;;;1.00;55.78;97985.91;6297843;22;20019;-82
2024/01/20 17:30:51;;;;;;;14.63;9.10;;;;;;;0.97;56.80;97980.97;6299714;22;20016;-81
2024/01/20 17:33:20;;;;;;;14.73;9.63;;;;;;;0.94;58.26;97978.53;6297465;22;20063;-82
2024/01/20 17:35:52;;;;;;;14.75;8.40;;;;;;;0.93;57.66;97982.88;6297204;22;20020;-84
2024/01/20 17:38:21;;;;;;;15.27;8.98;;;;;;;0.89;56.96;97978.81;6296956;22;20015;-84
2024/01/20 17:40:48;;;;;;;14.90;9.27;;;;;;;0.82;57.23;97978.34;6299664;22;20361;-81
2024/01/20 17:43:18;;;;;;;15.88;9.98;;;;;;;0.80;57.48;97980.16;6300133;22;20051;-81
2024/01/20 17:45:47;;;;;;;16.35;9.38;;;;;;;0.74;56.95;97980.50;6299769;22;20015;-81
2024/01/20 17:48:16;;;;;;;16.42;9.80;;;;;;;0.71;57.24;97978.13;6299636;22;20026;-82
2024/01/20 17:50:44;;;;;;;16.77;9.32;;;;;;;0.66;56.65;97980.13;6299944;22;20026;-84
2024/01/20 17:53:13;;;;;;;17.92;10.52;;;;;;;0.62;56.88;97981.22;6297854;22;20019;-84